createdAt,value
2019-04-06T00:01:58.165Z,29.27
2019-04-06T00:04:29.481Z,26.50
2019-04-06T00:07:00.751Z,28.73
2019-04-06T00:09:32.083Z,32.20
2019-04-06T00:12:03.369Z,30.83
2019-04-06T00:14:34.680Z,30.70
2019-04-06T00:17:06.055Z,31.17
2019-04-06T00:19:37.377Z,32.60
2019-04-06T00:22:08.586Z,29.67
2019-04-06T00:24:39.969Z,31.80
2019-04-06T00:27:11.305Z,33.80
2019-04-06T00:29:42.701Z,34.60
2019-04-06T00:32:20.274Z,33.80
2019-04-06T00:34:51.551Z,30.90
2019-04-06T00:37:22.888Z,31.07
2019-04-06T00:45:13.870Z,29.33
2019-04-06T00:47:45.179Z,30.67
2019-04-06T00:50:17.236Z,33.90
2019-04-06T00:52:48.585Z,29.00
2019-04-06T00:55:19.916Z,29.70
2019-04-06T00:57:51.231Z,32.30
2019-04-06T01:00:22.861Z,31.53
2019-04-06T01:02:54.127Z,35.50
2019-04-06T01:05:25.458Z,35.93
2019-04-06T01:07:56.761Z,30.87
2019-04-06T01:10:28.072Z,31.47
2019-04-06T01:12:59.359Z,30.90
2019-04-06T01:15:30.738Z,31.37
2019-04-06T01:18:02.042Z,30.87
2019-04-06T01:20:33.522Z,28.70
2019-04-06T01:23:04.826Z,35.70
2019-04-06T01:25:36.672Z,32.63
2019-04-06T01:28:07.895Z,32.57
2019-04-06T01:30:39.259Z,32.17
2019-04-06T01:33:10.477Z,35.27
2019-04-06T01:35:41.895Z,31.47
2019-04-06T01:38:13.223Z,31.30
2019-04-06T01:40:44.673Z,33.10
2019-04-06T01:43:16.021Z,28.83
2019-04-06T01:45:47.340Z,32.87
2019-04-06T01:48:18.686Z,28.60
2019-04-06T01:50:49.986Z,32.90
2019-04-06T01:53:21.343Z,36.60
2019-04-06T01:55:52.659Z,34.07
2019-04-06T01:58:23.930Z,33.57
2019-04-06T02:01:17.067Z,38.43
2019-04-06T02:03:48.385Z,34.40
2019-04-06T02:06:19.667Z,32.37
2019-04-06T02:09:10.002Z,33.50
2019-04-06T02:14:44.952Z,32.73
2019-04-06T02:17:16.302Z,34.63
2019-04-06T02:19:47.673Z,35.90
2019-04-06T02:22:18.958Z,31.40
2019-04-06T02:24:50.200Z,36.50
2019-04-06T02:27:21.382Z,35.47
2019-04-06T02:30:13.630Z,35.73
2019-04-06T02:32:54.926Z,32.77
2019-04-06T02:35:38.899Z,33.83
2019-04-06T02:38:38.137Z,35.13
2019-04-06T02:41:14.849Z,38.43
2019-04-06T02:43:46.239Z,33.10
2019-04-06T02:46:17.657Z,37.30
2019-04-06T02:48:48.927Z,36.63
2019-04-06T02:51:20.222Z,34.37
2019-04-06T02:53:51.629Z,34.20
2019-04-06T02:56:22.924Z,35.60
2019-04-06T02:58:54.112Z,34.67
2019-04-06T03:01:25.316Z,34.80
2019-04-06T03:03:56.735Z,34.00
2019-04-06T03:06:28.092Z,35.97
2019-04-06T03:08:59.304Z,34.17
2019-04-06T03:11:30.640Z,33.63
2019-04-06T03:14:01.968Z,32.80
2019-04-06T03:16:33.241Z,33.47
2019-04-06T03:19:04.550Z,35.40
2019-04-06T03:21:35.996Z,35.50
2019-04-06T03:24:07.251Z,35.40
2019-04-06T03:26:38.447Z,34.73
2019-04-06T03:29:09.898Z,36.70
2019-04-06T03:31:41.413Z,34.93
2019-04-06T03:34:12.927Z,36.10
2019-04-06T03:36:44.313Z,35.60
2019-04-06T03:39:15.634Z,38.30
2019-04-06T03:47:07.511Z,36.90
2019-04-06T03:49:38.853Z,37.00
2019-04-06T03:52:10.007Z,36.07
2019-04-06T03:54:41.241Z,36.10
2019-04-06T03:57:16.001Z,36.10
2019-04-06T03:59:45.410Z,37.70
2019-04-06T04:02:16.668Z,34.60
2019-04-06T04:04:47.898Z,38.63
2019-04-06T04:07:19.195Z,36.53
2019-04-06T04:09:50.530Z,36.73
2019-04-06T04:12:21.747Z,37.47
2019-04-06T04:14:53.002Z,35.73
2019-04-06T04:17:24.267Z,36.70
2019-04-06T04:19:55.665Z,36.67
2019-04-06T04:22:26.929Z,37.47
2019-04-06T04:24:58.291Z,40.00
2019-04-06T04:27:30.706Z,38.20
2019-04-06T04:30:02.258Z,34.30
2019-04-06T04:32:33.381Z,35.93
2019-04-06T04:35:05.366Z,37.90
2019-04-06T04:37:36.649Z,38.20
2019-04-06T04:40:08.080Z,35.70
2019-04-06T04:42:39.256Z,39.50
2019-04-06T04:45:10.695Z,41.40
2019-04-06T04:47:41.910Z,38.80
2019-04-06T04:50:14.164Z,37.50
2019-04-06T04:52:45.391Z,38.17
2019-04-06T04:55:16.661Z,38.33
2019-04-06T04:57:48.140Z,36.30
2019-04-06T05:00:19.428Z,42.23
2019-04-06T05:02:50.707Z,39.07
2019-04-06T05:05:21.948Z,38.57
2019-04-06T05:07:53.116Z,38.10
2019-04-06T05:10:24.535Z,38.33
2019-04-06T05:12:55.824Z,36.83
2019-04-06T05:16:21.026Z,40.03
2019-04-06T05:18:52.452Z,37.00
2019-04-06T05:21:23.716Z,36.80
2019-04-06T05:23:55.092Z,34.60
2019-04-06T05:26:36.570Z,38.13
2019-04-06T05:28:59.317Z,37.20
2019-04-06T05:31:30.613Z,37.13
2019-04-06T05:34:01.820Z,36.30
2019-04-06T05:36:33.109Z,38.63
2019-04-06T05:39:05.226Z,36.70
2019-04-06T05:41:36.529Z,39.60
2019-04-06T05:44:07.776Z,38.13
2019-04-06T05:46:39.090Z,38.07
2019-04-06T05:49:10.335Z,38.80
2019-04-06T05:51:41.660Z,36.37
2019-04-06T05:54:12.866Z,37.90
2019-04-06T05:56:44.152Z,38.57
2019-04-06T05:59:15.375Z,37.63
2019-04-06T06:01:48.575Z,38.57
2019-04-06T06:04:19.563Z,35.13
2019-04-06T06:06:50.690Z,38.07
2019-04-06T06:09:21.965Z,37.47
2019-04-06T06:11:55.539Z,37.20
2019-04-06T06:14:26.154Z,37.63
2019-04-06T06:16:57.344Z,37.50
2019-04-06T06:19:28.600Z,38.37
2019-04-06T06:21:59.817Z,35.63
2019-04-06T06:24:31.065Z,34.20
2019-04-06T06:27:02.414Z,38.70
2019-04-06T06:29:33.734Z,37.83
2019-04-06T06:32:05.366Z,36.23
2019-04-06T06:34:36.675Z,36.23
2019-04-06T06:37:07.892Z,38.57
2019-04-06T06:39:39.422Z,37.50
2019-04-06T06:42:10.534Z,38.40
2019-04-06T06:44:41.833Z,33.70
2019-04-06T06:47:13.001Z,34.83
2019-04-06T06:49:46.746Z,39.27
2019-04-06T06:52:17.957Z,34.47
2019-04-06T06:54:49.153Z,39.87
2019-04-06T06:57:20.543Z,33.20
2019-04-06T06:59:51.888Z,34.20
2019-04-06T07:02:23.931Z,36.67
2019-04-06T07:04:59.725Z,36.73
2019-04-06T07:07:33.695Z,35.53
2019-04-06T07:10:24.087Z,33.70
2019-04-06T07:12:57.560Z,36.40
2019-04-06T07:15:28.806Z,33.53
2019-04-06T07:17:59.983Z,37.20
2019-04-06T07:20:31.205Z,37.00
2019-04-06T07:23:02.562Z,37.50
2019-04-06T07:25:33.888Z,35.57
2019-04-06T07:28:05.205Z,33.83
2019-04-06T07:30:36.456Z,36.77
2019-04-06T07:33:07.945Z,31.70
2019-04-06T07:35:39.225Z,34.33
2019-04-06T07:38:10.776Z,36.67
2019-04-06T07:40:42.009Z,34.97
2019-04-06T07:43:13.314Z,34.10
2019-04-06T07:45:44.617Z,34.83
2019-04-06T07:48:15.862Z,33.20
2019-04-06T07:50:47.302Z,33.77
2019-04-06T07:53:18.605Z,34.10
2019-04-06T07:55:49.891Z,32.73
2019-04-06T07:58:21.236Z,32.83
2019-04-06T08:00:52.506Z,32.83
2019-04-06T08:03:23.791Z,33.97
2019-04-06T08:05:57.240Z,36.73
2019-04-06T08:08:29.080Z,33.70
2019-04-06T08:11:00.623Z,36.70
2019-04-06T08:13:32.038Z,32.30
2019-04-06T08:18:35.888Z,31.87
2019-04-06T08:21:07.249Z,35.50
2019-04-06T08:23:38.661Z,29.50
2019-04-06T08:26:10.059Z,35.63
2019-04-06T08:28:41.277Z,29.50
2019-04-06T08:31:12.820Z,31.90
2019-04-06T08:33:44.055Z,29.80
2019-04-06T08:36:15.325Z,31.67
2019-04-06T08:38:47.395Z,34.43
2019-04-06T08:41:18.659Z,31.53
2019-04-06T08:43:49.958Z,34.63
2019-04-06T08:46:21.258Z,27.93
2019-04-06T08:48:52.487Z,29.87
2019-04-06T08:51:23.593Z,30.53
2019-04-06T08:53:54.915Z,30.33
2019-04-06T08:56:26.186Z,29.40
2019-04-06T08:58:57.388Z,30.23
2019-04-06T09:01:28.613Z,29.77
2019-04-06T09:04:00.119Z,31.63
2019-04-06T09:06:38.429Z,29.77
2019-04-06T09:09:20.976Z,30.43
2019-04-06T09:11:52.306Z,30.37
2019-04-06T09:14:23.633Z,32.70
2019-04-06T09:16:54.923Z,30.50
2019-04-06T09:19:26.504Z,30.80
2019-04-06T09:21:57.798Z,31.20
2019-04-06T09:24:29.619Z,30.20
2019-04-06T09:27:01.000Z,31.10
2019-04-06T09:29:32.260Z,34.70
2019-04-06T09:32:03.638Z,29.83
2019-04-06T09:34:34.906Z,29.03
2019-04-06T09:37:06.203Z,29.17
2019-04-06T09:39:37.476Z,31.10
2019-04-06T09:42:08.834Z,29.87
2019-04-06T09:44:46.422Z,28.40
2019-04-06T09:47:34.772Z,31.40
2019-04-06T09:50:34.607Z,29.10
2019-04-06T09:53:33.190Z,29.97
2019-04-06T09:56:25.474Z,27.43
2019-04-06T09:59:14.399Z,26.07
2019-04-06T10:02:05.320Z,27.67
2019-04-06T10:04:54.070Z,28.07
2019-04-06T10:07:49.505Z,29.33
2019-04-06T10:10:39.521Z,29.23
2019-04-06T10:13:18.935Z,30.73
2019-04-06T10:16:07.902Z,29.67
2019-04-06T10:19:07.058Z,28.57
2019-04-06T10:22:03.409Z,28.93
2019-04-06T10:25:02.901Z,29.30
2019-04-06T10:27:55.570Z,28.80
2019-04-06T10:30:54.506Z,28.90
2019-04-06T10:33:43.183Z,28.87
2019-04-06T10:36:39.334Z,30.07
2019-04-06T10:39:35.532Z,28.37
2019-04-06T10:42:24.424Z,26.60
2019-04-06T10:45:16.957Z,27.43
2019-04-06T10:48:16.275Z,27.23
2019-04-06T10:51:13.579Z,26.70
2019-04-06T10:54:04.152Z,27.83
2019-04-06T10:56:50.160Z,29.10
2019-04-06T11:00:00.300Z,29.73
2019-04-06T11:02:58.492Z,29.93
2019-04-06T11:05:51.601Z,28.77
2019-04-06T11:08:50.805Z,26.80
2019-04-06T11:11:44.598Z,26.27
2019-04-06T11:17:16.796Z,27.57
2019-04-06T11:20:23.590Z,27.17
2019-04-06T11:23:22.176Z,27.83
2019-04-06T11:26:12.155Z,29.00
2019-04-06T11:29:20.518Z,28.57
2019-04-06T11:32:48.965Z,26.00
2019-04-06T11:37:31.487Z,28.77
2019-04-06T11:43:04.106Z,26.43
2019-04-06T11:52:46.485Z,26.67
2019-04-06T11:55:39.421Z,28.40
2019-04-06T11:58:41.742Z,26.83
2019-04-06T12:01:20.436Z,26.70
2019-04-06T12:04:07.633Z,27.50
2019-04-06T12:06:56.262Z,27.83
2019-04-06T12:09:45.371Z,26.07
2019-04-06T12:12:36.506Z,26.50
2019-04-06T12:15:39.304Z,28.47
2019-04-06T12:18:29.390Z,26.27
2019-04-06T12:21:13.934Z,26.43
2019-04-06T12:24:07.443Z,26.97
2019-04-06T12:27:15.985Z,28.33
2019-04-06T12:29:54.624Z,27.60
2019-04-06T12:32:47.983Z,26.60
2019-04-06T12:35:41.163Z,25.83
2019-04-06T12:38:27.136Z,27.13
2019-04-06T12:41:15.932Z,27.17
2019-04-06T12:44:20.018Z,28.47
2019-04-06T12:47:15.271Z,25.10
2019-04-06T12:50:11.044Z,24.80
2019-04-06T12:53:00.184Z,39.30
2019-04-06T12:55:51.716Z,30.00
2019-04-06T12:58:41.748Z,30.70
2019-04-06T13:01:34.835Z,31.57
2019-04-06T13:04:23.759Z,29.00
2019-04-06T13:07:29.122Z,32.97
2019-04-06T13:10:19.686Z,29.77
2019-04-06T13:13:10.247Z,29.20
2019-04-06T13:15:53.339Z,29.83
2019-04-06T13:18:42.243Z,33.10
2019-04-06T13:21:31.181Z,29.83
2019-04-06T13:24:26.744Z,31.90
2019-04-06T13:27:06.736Z,30.50
2019-04-06T13:29:51.976Z,31.20
2019-04-06T13:32:45.104Z,33.77
2019-04-06T13:35:51.556Z,29.83
2019-04-06T13:38:47.807Z,31.80
2019-04-06T13:41:38.112Z,29.00
2019-04-06T13:44:20.496Z,31.73
2019-04-06T13:47:22.615Z,33.00
2019-04-06T13:50:24.939Z,30.13
2019-04-06T13:53:05.894Z,33.50
2019-04-06T13:55:58.914Z,33.90
2019-04-06T13:58:59.676Z,32.30
2019-04-06T14:01:37.871Z,31.50
2019-04-06T14:04:24.608Z,32.47
2019-04-06T14:07:23.693Z,28.73
2019-04-06T14:10:16.742Z,29.20
2019-04-06T14:13:06.732Z,29.70
2019-04-06T14:15:54.629Z,30.40
2019-04-06T14:18:43.673Z,30.77
2019-04-06T14:21:33.676Z,26.10
2019-04-06T14:24:23.704Z,29.40
2019-04-06T14:27:06.485Z,30.63
2019-04-06T14:29:55.809Z,28.70
2019-04-06T14:32:40.584Z,25.90
2019-04-06T14:35:46.173Z,28.30
2019-04-06T14:38:54.161Z,28.07
2019-04-06T14:41:43.176Z,28.13
2019-04-06T14:44:39.071Z,29.03
2019-04-06T14:47:30.751Z,27.07
2019-04-06T14:50:19.273Z,29.13
2019-04-06T14:53:11.519Z,27.57
2019-04-06T14:56:04.671Z,27.20
2019-04-06T14:59:05.109Z,26.27
2019-04-06T15:01:55.546Z,28.27
2019-04-06T15:04:42.207Z,27.70
2019-04-06T15:07:38.279Z,26.30
2019-04-06T15:10:18.817Z,26.70
2019-04-06T15:13:07.886Z,25.23
2019-04-06T15:16:14.448Z,26.43
2019-04-06T15:19:19.656Z,31.40
2019-04-06T15:22:12.817Z,27.90
2019-04-06T15:25:08.760Z,25.90
2019-04-06T15:28:15.323Z,28.10
2019-04-06T15:31:03.219Z,26.07
2019-04-06T15:33:59.581Z,30.43
2019-04-06T15:36:52.397Z,32.73
2019-04-06T15:42:12.425Z,28.67
2019-04-06T15:45:11.914Z,29.00
2019-04-06T15:48:15.029Z,30.33
2019-04-06T15:51:11.282Z,24.07
2019-04-06T15:54:10.616Z,24.53
2019-04-06T15:57:09.755Z,26.30
2019-04-06T16:00:12.320Z,26.90
2019-04-06T16:03:08.598Z,26.00
2019-04-06T16:05:59.536Z,28.20
2019-04-06T16:08:49.486Z,26.93
2019-04-06T16:11:52.289Z,28.83
2019-04-06T16:14:45.731Z,30.00
2019-04-06T16:17:47.872Z,28.33
2019-04-06T16:20:26.931Z,28.93
2019-04-06T16:23:32.623Z,29.07
2019-04-06T16:26:25.737Z,29.83
2019-04-06T16:29:15.033Z,28.70
2019-04-06T16:32:13.845Z,27.47
2019-04-06T16:35:06.613Z,28.30
2019-04-06T16:37:58.274Z,28.70
2019-04-06T16:40:56.003Z,28.63
2019-04-06T16:43:58.360Z,29.70
2019-04-06T16:46:51.551Z,29.80
2019-04-06T16:49:56.709Z,32.00
2019-04-06T16:52:57.829Z,30.53
2019-04-06T16:55:47.258Z,30.87
2019-04-06T16:58:29.478Z,31.33
2019-04-06T17:01:11.161Z,30.50
2019-04-06T17:03:51.400Z,32.07
2019-04-06T17:06:43.256Z,31.87
2019-04-06T17:09:42.307Z,31.17
2019-04-06T17:12:31.117Z,34.00
2019-04-06T17:15:23.321Z,31.57
2019-04-06T17:18:09.316Z,32.47
2019-04-06T17:21:04.716Z,30.13
2019-04-06T17:23:57.572Z,29.40
2019-04-06T17:26:51.901Z,32.57
2019-04-06T17:29:45.925Z,33.83
2019-04-06T17:32:38.631Z,30.40
2019-04-06T17:35:27.545Z,31.47
2019-04-06T17:38:29.604Z,31.10
2019-04-06T17:41:53.492Z,34.13
2019-04-06T17:44:50.139Z,34.80
2019-04-06T17:47:42.878Z,33.60
2019-04-06T17:50:23.928Z,31.00
2019-04-06T17:53:20.155Z,32.40
2019-04-06T17:56:12.924Z,34.10
2019-04-06T17:59:03.005Z,35.30
2019-04-06T18:01:53.142Z,34.13
2019-04-06T18:04:47.027Z,32.63
2019-04-06T18:07:34.909Z,33.97
2019-04-06T18:10:17.436Z,32.53
2019-04-06T18:13:11.747Z,34.67
2019-04-06T18:15:59.468Z,31.97
2019-04-06T18:18:33.009Z,33.97
2019-04-06T18:21:05.051Z,31.90
2019-04-06T18:23:40.613Z,35.07
2019-04-06T18:26:25.579Z,33.80
2019-04-06T18:29:06.558Z,32.60
2019-04-06T18:31:59.686Z,34.27
2019-04-06T18:34:38.763Z,32.27
2019-04-06T18:39:53.562Z,35.47
2019-04-06T18:42:36.700Z,34.23
2019-04-06T18:45:08.680Z,34.23
2019-04-06T18:47:42.827Z,34.07
2019-04-06T18:50:17.243Z,32.70
2019-04-06T18:52:48.853Z,31.67
2019-04-06T18:55:21.397Z,36.00
2019-04-06T18:57:54.368Z,34.07
2019-04-06T19:00:26.389Z,32.67
2019-04-06T19:03:11.067Z,34.13
2019-04-06T19:05:32.190Z,35.30
2019-04-06T19:08:05.220Z,36.77
2019-04-06T19:10:38.430Z,37.57
2019-04-06T19:13:09.991Z,35.63
2019-04-06T19:15:45.649Z,36.30
2019-04-06T19:18:18.457Z,35.83
2019-04-06T19:20:52.867Z,34.97
2019-04-06T19:23:24.471Z,34.43
2019-04-06T19:25:55.948Z,35.17
2019-04-06T19:28:28.842Z,34.30
2019-04-06T19:31:00.272Z,34.40
2019-04-06T19:33:33.299Z,34.37
2019-04-06T19:36:07.028Z,36.30
2019-04-06T19:38:38.416Z,35.43
2019-04-06T19:41:09.695Z,38.67
2019-04-06T19:43:40.996Z,37.90
2019-04-06T19:46:12.380Z,34.33
2019-04-06T19:48:43.682Z,34.40
2019-04-06T19:51:14.947Z,35.10
2019-04-06T19:53:46.142Z,34.23
2019-04-06T19:56:17.452Z,34.40
2019-04-06T19:58:49.278Z,33.77
2019-04-06T20:01:22.219Z,38.20
2019-04-06T20:03:56.394Z,34.13
2019-04-06T20:06:29.580Z,37.40
2019-04-06T20:09:00.873Z,35.77
2019-04-06T20:11:32.181Z,37.00
2019-04-06T20:14:04.064Z,36.67
2019-04-06T20:16:35.692Z,36.80
2019-04-06T20:19:09.208Z,38.93
2019-04-06T20:21:40.988Z,35.97
2019-04-06T20:24:12.749Z,34.10
2019-04-06T20:26:44.127Z,35.17
2019-04-06T20:29:15.533Z,33.27
2019-04-06T20:31:47.189Z,35.50
2019-04-06T20:34:18.599Z,34.17
2019-04-06T20:36:49.837Z,36.13
2019-04-06T20:39:21.127Z,34.80
2019-04-06T20:41:52.385Z,35.00
2019-04-06T20:44:23.737Z,32.23
2019-04-06T20:46:55.138Z,34.17
2019-04-06T20:49:26.379Z,32.77
2019-04-06T20:51:58.890Z,35.33
2019-04-06T20:54:30.741Z,34.30
2019-04-06T20:57:02.210Z,32.17
2019-04-06T20:59:33.493Z,32.53
2019-04-06T21:02:04.771Z,35.00
2019-04-06T21:04:35.937Z,35.50
2019-04-06T21:07:07.201Z,34.47
2019-04-06T21:09:38.397Z,35.17
2019-04-06T21:12:09.751Z,34.43
2019-04-06T21:14:41.502Z,37.70
2019-04-06T21:17:12.935Z,35.97
2019-04-06T21:19:44.290Z,37.37
2019-04-06T21:22:16.136Z,34.23
2019-04-06T21:24:47.384Z,36.37
2019-04-06T21:27:18.678Z,37.00
2019-04-06T21:29:49.933Z,39.70
2019-04-06T21:34:50.892Z,35.87
2019-04-06T21:37:22.685Z,36.40
2019-04-06T21:39:54.311Z,50.10
2019-04-06T21:42:26.405Z,50.40
2019-04-06T21:44:58.146Z,46.47
2019-04-06T21:47:29.673Z,44.17
2019-04-06T21:50:00.824Z,44.93
2019-04-06T21:52:32.023Z,41.63
2019-04-06T21:55:03.719Z,43.13
2019-04-06T21:57:35.485Z,38.97
2019-04-06T22:00:08.656Z,37.30
2019-04-06T22:02:40.210Z,37.20
2019-04-06T22:05:12.058Z,39.27
2019-04-06T22:07:49.586Z,37.83
2019-04-06T22:10:17.244Z,38.00
2019-04-06T22:12:48.995Z,36.87
2019-04-06T22:15:20.318Z,36.40
2019-04-06T22:17:51.974Z,35.97
2019-04-06T22:20:23.337Z,37.63
2019-04-06T22:22:54.591Z,36.30
2019-04-06T22:25:25.841Z,35.43
2019-04-06T22:27:57.021Z,38.47
2019-04-06T22:30:28.181Z,39.20
2019-04-06T22:32:59.303Z,38.27
2019-04-06T22:35:30.542Z,37.37
2019-04-06T22:38:01.798Z,37.60
2019-04-06T22:40:32.965Z,37.13
2019-04-06T22:43:04.722Z,35.20
2019-04-06T22:45:36.123Z,34.57
2019-04-06T22:48:07.502Z,32.73
2019-04-06T22:50:39.345Z,35.33
2019-04-06T22:53:10.636Z,35.20
2019-04-06T22:55:41.770Z,35.53
2019-04-06T22:58:13.082Z,33.60
2019-04-06T23:00:53.112Z,34.17
2019-04-06T23:03:43.473Z,34.47
2019-04-06T23:06:18.694Z,33.97
2019-04-06T23:08:49.977Z,35.67
2019-04-06T23:11:21.612Z,35.53
2019-04-06T23:13:53.353Z,35.77
2019-04-06T23:16:24.562Z,35.27
2019-04-06T23:18:56.085Z,35.90
2019-04-06T23:21:27.228Z,33.53
2019-04-06T23:23:58.421Z,32.90
2019-04-06T23:26:29.642Z,33.43
2019-04-06T23:29:00.868Z,35.77
2019-04-06T23:31:32.286Z,35.33
2019-04-06T23:34:03.479Z,36.07
2019-04-06T23:36:34.749Z,38.63
2019-04-06T23:39:08.128Z,40.70
2019-04-06T23:41:39.217Z,43.07
2019-04-06T23:44:10.435Z,38.63
2019-04-06T23:46:41.876Z,38.27
2019-04-06T23:49:13.368Z,36.53
2019-04-06T23:51:47.839Z,36.13
2019-04-06T23:54:19.235Z,35.70
2019-04-06T23:56:51.274Z,39.40
2019-04-06T23:59:23.291Z,35.73
